sensor_id;sensor_type;location;lat;lon;timestamp;P1;durP1;ratioP1;P2;durP2;ratioP2
48040;SDS011;33815;48.386;11.738;2024-02-14T00:01:22;8.70;;;5.03;;
48040;SDS011;33815;48.386;11.738;2024-02-14T00:03:47;9.93;;;4.45;;
48040;SDS011;33815;48.386;11.738;2024-02-14T00:06:12;7.18;;;4.50;;
48040;SDS011;33815;48.386;11.738;2024-02-14T00:08:38;9.55;;;4.70;;
48040;SDS011;33815;48.386;11.738;2024-02-14T00:11:03;6.85;;;4.45;;
48040;SDS011;33815;48.386;11.738;2024-02-14T00:13:28;7.15;;;5.15;;
48040;SDS011;33815;48.386;11.738;2024-02-14T00:15:54;7.70;;;4.95;;
48040;SDS011;33815;48.386;11.738;2024-02-14T00:18:21;9.25;;;5.30;;
48040;SDS011;33815;48.386;11.738;2024-02-14T00:20:47;6.55;;;4.97;;
48040;SDS011;33815;48.386;11.738;2024-02-14T00:23:13;9.35;;;5.25;;
48040;SDS011;33815;48.386;11.738;2024-02-14T00:25:38;7.32;;;5.35;;
48040;SDS011;33815;48.386;11.738;2024-02-14T00:28:04;10.30;;;6.32;;
48040;SDS011;33815;48.386;11.738;2024-02-14T00:30:30;7.82;;;5.13;;
48040;SDS011;33815;48.386;11.738;2024-02-14T00:32:56;8.52;;;5.88;;
48040;SDS011;33815;48.386;11.738;2024-02-14T00:35:21;13.15;;;5.30;;
48040;SDS011;33815;48.386;11.738;2024-02-14T00:37:47;8.15;;;5.72;;
48040;SDS011;33815;48.386;11.738;2024-02-14T00:40:12;8.10;;;4.75;;
48040;SDS011;33815;48.386;11.738;2024-02-14T00:42:37;7.65;;;4.93;;
48040;SDS011;33815;48.386;11.738;2024-02-14T00:45:03;7.88;;;5.18;;
48040;SDS011;33815;48.386;11.738;2024-02-14T00:47:32;9.93;;;5.22;;
48040;SDS011;33815;48.386;11.738;2024-02-14T00:49:57;12.02;;;5.20;;
48040;SDS011;33815;48.386;11.738;2024-02-14T00:52:23;9.90;;;5.40;;
48040;SDS011;33815;48.386;11.738;2024-02-14T00:54:49;8.45;;;5.68;;
48040;SDS011;33815;48.386;11.738;2024-02-14T00:57:14;7.75;;;5.60;;
48040;SDS011;33815;48.386;11.738;2024-02-14T00:59:40;9.25;;;6.07;;
48040;SDS011;33815;48.386;11.738;2024-02-14T01:02:05;10.95;;;6.03;;
48040;SDS011;33815;48.386;11.738;2024-02-14T01:04:30;10.55;;;6.03;;
48040;SDS011;33815;48.386;11.738;2024-02-14T01:06:55;11.13;;;5.75;;
48040;SDS011;33815;48.386;11.738;2024-02-14T01:09:21;12.98;;;6.18;;
48040;SDS011;33815;48.386;11.738;2024-02-14T01:11:46;11.05;;;5.93;;
48040;SDS011;33815;48.386;11.738;2024-02-14T01:14:13;9.55;;;6.22;;
48040;SDS011;33815;48.386;11.738;2024-02-14T01:16:45;10.88;;;6.55;;
48040;SDS011;33815;48.386;11.738;2024-02-14T01:19:10;11.43;;;6.43;;
48040;SDS011;33815;48.386;11.738;2024-02-14T01:21:36;12.98;;;6.93;;
48040;SDS011;33815;48.386;11.738;2024-02-14T01:24:01;11.40;;;6.30;;
48040;SDS011;33815;48.386;11.738;2024-02-14T01:26:27;15.45;;;6.65;;
48040;SDS011;33815;48.386;11.738;2024-02-14T01:28:52;11.07;;;6.65;;
48040;SDS011;33815;48.386;11.738;2024-02-14T01:31:17;12.25;;;6.53;;
48040;SDS011;33815;48.386;11.738;2024-02-14T01:33:43;10.68;;;7.38;;
48040;SDS011;33815;48.386;11.738;2024-02-14T01:36:10;10.52;;;6.13;;
48040;SDS011;33815;48.386;11.738;2024-02-14T01:38:36;9.23;;;6.50;;
48040;SDS011;33815;48.386;11.738;2024-02-14T01:41:02;8.82;;;5.70;;
48040;SDS011;33815;48.386;11.738;2024-02-14T01:43:28;9.70;;;6.18;;
48040;SDS011;33815;48.386;11.738;2024-02-14T01:45:54;15.07;;;6.20;;
48040;SDS011;33815;48.386;11.738;2024-02-14T01:48:20;10.40;;;6.07;;
48040;SDS011;33815;48.386;11.738;2024-02-14T01:50:46;11.55;;;6.03;;
48040;SDS011;33815;48.386;11.738;2024-02-14T01:53:11;8.80;;;6.25;;
48040;SDS011;33815;48.386;11.738;2024-02-14T01:55:37;13.27;;;6.63;;
48040;SDS011;33815;48.386;11.738;2024-02-14T01:58:03;12.10;;;6.75;;
48040;SDS011;33815;48.386;11.738;2024-02-14T02:00:29;11.32;;;6.38;;
48040;SDS011;33815;48.386;11.738;2024-02-14T02:02:59;11.70;;;6.75;;
48040;SDS011;33815;48.386;11.738;2024-02-14T02:05:25;13.43;;;6.43;;
48040;SDS011;33815;48.386;11.738;2024-02-14T02:07:50;7.03;;;5.43;;
48040;SDS011;33815;48.386;11.738;2024-02-14T02:10:16;10.55;;;5.90;;
48040;SDS011;33815;48.386;11.738;2024-02-14T02:12:41;9.73;;;5.75;;
48040;SDS011;33815;48.386;11.738;2024-02-14T02:15:06;7.75;;;5.93;;
48040;SDS011;33815;48.386;11.738;2024-02-14T02:17:36;9.32;;;5.30;;
48040;SDS011;33815;48.386;11.738;2024-02-14T02:20:01;9.32;;;5.57;;
48040;SDS011;33815;48.386;11.738;2024-02-14T02:22:27;8.00;;;5.88;;
48040;SDS011;33815;48.386;11.738;2024-02-14T02:24:54;7.40;;;5.35;;
48040;SDS011;33815;48.386;11.738;2024-02-14T02:27:19;11.70;;;6.05;;
48040;SDS011;33815;48.386;11.738;2024-02-14T02:29:45;11.10;;;5.90;;
48040;SDS011;33815;48.386;11.738;2024-02-14T02:32:11;9.40;;;5.50;;
48040;SDS011;33815;48.386;11.738;2024-02-14T02:34:36;12.18;;;5.60;;
48040;SDS011;33815;48.386;11.738;2024-02-14T02:37:04;8.15;;;5.55;;
48040;SDS011;33815;48.386;11.738;2024-02-14T02:39:32;10.23;;;6.15;;
48040;SDS011;33815;48.386;11.738;2024-02-14T02:41:58;11.52;;;5.70;;
48040;SDS011;33815;48.386;11.738;2024-02-14T02:44:24;6.68;;;4.88;;
48040;SDS011;33815;48.386;11.738;2024-02-14T02:46:49;13.60;;;6.07;;
48040;SDS011;33815;48.386;11.738;2024-02-14T02:49:15;7.90;;;5.35;;
48040;SDS011;33815;48.386;11.738;2024-02-14T02:51:40;8.60;;;5.70;;
48040;SDS011;33815;48.386;11.738;2024-02-14T02:54:05;12.65;;;6.50;;
48040;SDS011;33815;48.386;11.738;2024-02-14T02:56:32;9.00;;;6.15;;
48040;SDS011;33815;48.386;11.738;2024-02-14T02:58:58;11.80;;;6.00;;
48040;SDS011;33815;48.386;11.738;2024-02-14T03:01:24;11.23;;;6.15;;
48040;SDS011;33815;48.386;11.738;2024-02-14T03:03:50;10.07;;;5.90;;
48040;SDS011;33815;48.386;11.738;2024-02-14T03:06:15;12.20;;;6.35;;
48040;SDS011;33815;48.386;11.738;2024-02-14T03:08:40;7.68;;;5.75;;
48040;SDS011;33815;48.386;11.738;2024-02-14T03:11:06;8.85;;;5.68;;
48040;SDS011;33815;48.386;11.738;2024-02-14T03:13:32;10.23;;;6.03;;
48040;SDS011;33815;48.386;11.738;2024-02-14T03:15:57;10.65;;;5.63;;
48040;SDS011;33815;48.386;11.738;2024-02-14T03:18:23;7.82;;;5.53;;
48040;SDS011;33815;48.386;11.738;2024-02-14T03:20:49;11.85;;;5.18;;
48040;SDS011;33815;48.386;11.738;2024-02-14T03:23:15;11.10;;;5.80;;
48040;SDS011;33815;48.386;11.738;2024-02-14T03:25:41;8.63;;;5.82;;
48040;SDS011;33815;48.386;11.738;2024-02-14T03:28:07;11.75;;;5.80;;
48040;SDS011;33815;48.386;11.738;2024-02-14T03:30:33;7.15;;;5.32;;
48040;SDS011;33815;48.386;11.738;2024-02-14T03:32:59;10.13;;;5.28;;
48040;SDS011;33815;48.386;11.738;2024-02-14T03:35:25;9.18;;;5.03;;
48040;SDS011;33815;48.386;11.738;2024-02-14T03:37:51;6.18;;;4.50;;
48040;SDS011;33815;48.386;11.738;2024-02-14T03:40:18;7.82;;;5.47;;
48040;SDS011;33815;48.386;11.738;2024-02-14T03:42:45;7.93;;;5.80;;
48040;SDS011;33815;48.386;11.738;2024-02-14T03:45:11;5.55;;;4.88;;
48040;SDS011;33815;48.386;11.738;2024-02-14T03:47:36;7.28;;;5.57;;
48040;SDS011;33815;48.386;11.738;2024-02-14T03:50:04;9.00;;;4.75;;
48040;SDS011;33815;48.386;11.738;2024-02-14T03:52:30;9.70;;;5.85;;
48040;SDS011;33815;48.386;11.738;2024-02-14T03:55:02;7.70;;;5.65;;
48040;SDS011;33815;48.386;11.738;2024-02-14T03:57:28;13.07;;;6.07;;
48040;SDS011;33815;48.386;11.738;2024-02-14T03:59:57;13.05;;;5.03;;
48040;SDS011;33815;48.386;11.738;2024-02-14T04:02:24;9.57;;;6.13;;
48040;SDS011;33815;48.386;11.738;2024-02-14T04:04:50;6.25;;;4.88;;
48040;SDS011;33815;48.386;11.738;2024-02-14T04:07:15;8.57;;;4.95;;
48040;SDS011;33815;48.386;11.738;2024-02-14T04:09:41;9.77;;;5.80;;
48040;SDS011;33815;48.386;11.738;2024-02-14T04:12:06;8.45;;;5.10;;
48040;SDS011;33815;48.386;11.738;2024-02-14T04:14:32;7.15;;;5.32;;
48040;SDS011;33815;48.386;11.738;2024-02-14T04:16:57;8.23;;;5.10;;
48040;SDS011;33815;48.386;11.738;2024-02-14T04:19:22;11.40;;;5.78;;
48040;SDS011;33815;48.386;11.738;2024-02-14T04:21:48;8.48;;;6.40;;
48040;SDS011;33815;48.386;11.738;2024-02-14T04:24:13;7.05;;;5.38;;
48040;SDS011;33815;48.386;11.738;2024-02-14T04:26:39;6.68;;;5.35;;
48040;SDS011;33815;48.386;11.738;2024-02-14T04:29:04;7.82;;;5.32;;
48040;SDS011;33815;48.386;11.738;2024-02-14T04:31:29;14.15;;;6.38;;
48040;SDS011;33815;48.386;11.738;2024-02-14T04:33:56;8.50;;;5.10;;
48040;SDS011;33815;48.386;11.738;2024-02-14T04:36:21;12.00;;;5.60;;
48040;SDS011;33815;48.386;11.738;2024-02-14T04:38:50;9.70;;;5.85;;
48040;SDS011;33815;48.386;11.738;2024-02-14T04:41:15;9.32;;;5.38;;
48040;SDS011;33815;48.386;11.738;2024-02-14T04:43:41;6.93;;;5.65;;
48040;SDS011;33815;48.386;11.738;2024-02-14T04:46:06;9.85;;;6.53;;
48040;SDS011;33815;48.386;11.738;2024-02-14T04:48:33;8.45;;;5.32;;
48040;SDS011;33815;48.386;11.738;2024-02-14T04:51:02;9.15;;;5.13;;
48040;SDS011;33815;48.386;11.738;2024-02-14T04:53:29;6.43;;;5.32;;
48040;SDS011;33815;48.386;11.738;2024-02-14T04:55:54;8.75;;;5.40;;
48040;SDS011;33815;48.386;11.738;2024-02-14T04:58:20;10.68;;;6.70;;
48040;SDS011;33815;48.386;11.738;2024-02-14T05:00:45;13.27;;;6.50;;
48040;SDS011;33815;48.386;11.738;2024-02-14T05:03:10;10.55;;;5.80;;
48040;SDS011;33815;48.386;11.738;2024-02-14T05:05:36;9.82;;;6.35;;
48040;SDS011;33815;48.386;11.738;2024-02-14T05:08:01;8.75;;;5.80;;
48040;SDS011;33815;48.386;11.738;2024-02-14T05:10:27;9.13;;;5.45;;
48040;SDS011;33815;48.386;11.738;2024-02-14T05:12:53;9.18;;;6.03;;
48040;SDS011;33815;48.386;11.738;2024-02-14T05:15:19;9.90;;;5.82;;
48040;SDS011;33815;48.386;11.738;2024-02-14T05:17:44;9.82;;;5.93;;
48040;SDS011;33815;48.386;11.738;2024-02-14T05:20:10;7.35;;;5.65;;
48040;SDS011;33815;48.386;11.738;2024-02-14T05:22:36;9.98;;;5.00;;
48040;SDS011;33815;48.386;11.738;2024-02-14T05:25:02;9.77;;;5.68;;
48040;SDS011;33815;48.386;11.738;2024-02-14T05:27:29;10.82;;;6.65;;
48040;SDS011;33815;48.386;11.738;2024-02-14T05:29:55;7.10;;;4.88;;
48040;SDS011;33815;48.386;11.738;2024-02-14T05:32:20;6.97;;;5.38;;
48040;SDS011;33815;48.386;11.738;2024-02-14T05:34:45;7.30;;;5.35;;
48040;SDS011;33815;48.386;11.738;2024-02-14T05:37:10;9.68;;;6.22;;
48040;SDS011;33815;48.386;11.738;2024-02-14T05:39:36;7.35;;;5.40;;
48040;SDS011;33815;48.386;11.738;2024-02-14T05:42:01;9.23;;;5.57;;
48040;SDS011;33815;48.386;11.738;2024-02-14T05:44:27;9.13;;;5.68;;
48040;SDS011;33815;48.386;11.738;2024-02-14T05:46:55;12.13;;;5.38;;
48040;SDS011;33815;48.386;11.738;2024-02-14T05:49:20;7.32;;;5.53;;
48040;SDS011;33815;48.386;11.738;2024-02-14T05:51:46;8.88;;;5.78;;
48040;SDS011;33815;48.386;11.738;2024-02-14T05:54:11;11.55;;;5.93;;
48040;SDS011;33815;48.386;11.738;2024-02-14T05:56:37;8.57;;;5.13;;
48040;SDS011;33815;48.386;11.738;2024-02-14T05:59:02;7.82;;;5.00;;
48040;SDS011;33815;48.386;11.738;2024-02-14T06:01:27;9.73;;;5.88;;
48040;SDS011;33815;48.386;11.738;2024-02-14T06:03:53;8.15;;;5.28;;
48040;SDS011;33815;48.386;11.738;2024-02-14T06:06:19;9.85;;;5.55;;
48040;SDS011;33815;48.386;11.738;2024-02-14T06:08:44;7.30;;;4.88;;
48040;SDS011;33815;48.386;11.738;2024-02-14T06:11:09;6.80;;;5.13;;
48040;SDS011;33815;48.386;11.738;2024-02-14T06:13:35;7.32;;;4.93;;
48040;SDS011;33815;48.386;11.738;2024-02-14T06:16:03;11.32;;;5.47;;
48040;SDS011;33815;48.386;11.738;2024-02-14T06:18:29;12.30;;;6.15;;
48040;SDS011;33815;48.386;11.738;2024-02-14T06:20:54;9.95;;;5.72;;
48040;SDS011;33815;48.386;11.738;2024-02-14T06:23:19;8.52;;;5.50;;
48040;SDS011;33815;48.386;11.738;2024-02-14T06:25:45;9.13;;;5.15;;
48040;SDS011;33815;48.386;11.738;2024-02-14T06:28:10;7.57;;;5.30;;
48040;SDS011;33815;48.386;11.738;2024-02-14T06:30:36;7.07;;;4.93;;
48040;SDS011;33815;48.386;11.738;2024-02-14T06:33:02;9.07;;;5.13;;
48040;SDS011;33815;48.386;11.738;2024-02-14T06:35:27;8.40;;;5.45;;
48040;SDS011;33815;48.386;11.738;2024-02-14T06:37:53;5.68;;;4.55;;
48040;SDS011;33815;48.386;11.738;2024-02-14T06:40:19;7.78;;;5.28;;
48040;SDS011;33815;48.386;11.738;2024-02-14T06:42:44;7.45;;;4.93;;
48040;SDS011;33815;48.386;11.738;2024-02-14T06:45:09;8.52;;;5.32;;
48040;SDS011;33815;48.386;11.738;2024-02-14T06:47:35;10.65;;;5.18;;
48040;SDS011;33815;48.386;11.738;2024-02-14T06:50:00;8.02;;;5.28;;
48040;SDS011;33815;48.386;11.738;2024-02-14T06:52:25;6.15;;;4.90;;
48040;SDS011;33815;48.386;11.738;2024-02-14T06:54:51;7.10;;;4.75;;
48040;SDS011;33815;48.386;11.738;2024-02-14T06:57:16;10.25;;;4.78;;
48040;SDS011;33815;48.386;11.738;2024-02-14T06:59:42;6.43;;;4.70;;
48040;SDS011;33815;48.386;11.738;2024-02-14T07:02:08;6.80;;;4.57;;
48040;SDS011;33815;48.386;11.738;2024-02-14T07:04:33;5.45;;;3.90;;
48040;SDS011;33815;48.386;11.738;2024-02-14T07:06:58;5.10;;;3.72;;
48040;SDS011;33815;48.386;11.738;2024-02-14T07:09:25;15.32;;;7.57;;
48040;SDS011;33815;48.386;11.738;2024-02-14T07:11:50;9.68;;;4.82;;
48040;SDS011;33815;48.386;11.738;2024-02-14T07:14:18;7.18;;;4.55;;
48040;SDS011;33815;48.386;11.738;2024-02-14T07:16:43;7.25;;;4.47;;
48040;SDS011;33815;48.386;11.738;2024-02-14T07:19:09;6.18;;;4.35;;
48040;SDS011;33815;48.386;11.738;2024-02-14T07:21:34;6.22;;;4.75;;
48040;SDS011;33815;48.386;11.738;2024-02-14T07:23:59;6.43;;;4.18;;
48040;SDS011;33815;48.386;11.738;2024-02-14T07:26:24;7.72;;;4.50;;
48040;SDS011;33815;48.386;11.738;2024-02-14T07:28:50;6.05;;;4.43;;
48040;SDS011;33815;48.386;11.738;2024-02-14T07:31:16;12.00;;;4.82;;
48040;SDS011;33815;48.386;11.738;2024-02-14T07:33:41;4.53;;;3.97;;
48040;SDS011;33815;48.386;11.738;2024-02-14T07:36:08;7.60;;;5.03;;
48040;SDS011;33815;48.386;11.738;2024-02-14T07:38:34;7.55;;;4.22;;
48040;SDS011;33815;48.386;11.738;2024-02-14T07:40:59;6.45;;;4.80;;
48040;SDS011;33815;48.386;11.738;2024-02-14T07:43:24;5.80;;;4.38;;
48040;SDS011;33815;48.386;11.738;2024-02-14T07:45:50;6.93;;;3.80;;
48040;SDS011;33815;48.386;11.738;2024-02-14T07:48:15;8.43;;;3.15;;
48040;SDS011;33815;48.386;11.738;2024-02-14T07:50:40;6.00;;;3.33;;
48040;SDS011;33815;48.386;11.738;2024-02-14T07:53:05;7.35;;;3.40;;
48040;SDS011;33815;48.386;11.738;2024-02-14T07:55:31;5.20;;;3.15;;
48040;SDS011;33815;48.386;11.738;2024-02-14T07:57:56;4.28;;;3.17;;
48040;SDS011;33815;48.386;11.738;2024-02-14T08:00:22;3.90;;;2.63;;
48040;SDS011;33815;48.386;11.738;2024-02-14T08:02:50;5.43;;;4.03;;
48040;SDS011;33815;48.386;11.738;2024-02-14T08:05:16;3.90;;;2.83;;
48040;SDS011;33815;48.386;11.738;2024-02-14T08:07:42;5.43;;;2.80;;
48040;SDS011;33815;48.386;11.738;2024-02-14T08:10:07;7.75;;;2.83;;
48040;SDS011;33815;48.386;11.738;2024-02-14T08:12:33;6.68;;;2.90;;
48040;SDS011;33815;48.386;11.738;2024-02-14T08:14:59;4.88;;;2.97;;
48040;SDS011;33815;48.386;11.738;2024-02-14T08:17:29;4.18;;;3.08;;
48040;SDS011;33815;48.386;11.738;2024-02-14T08:19:54;4.65;;;2.47;;
48040;SDS011;33815;48.386;11.738;2024-02-14T08:22:19;4.25;;;3.05;;
48040;SDS011;33815;48.386;11.738;2024-02-14T08:24:45;2.95;;;2.65;;
48040;SDS011;33815;48.386;11.738;2024-02-14T08:27:11;6.15;;;2.80;;
48040;SDS011;33815;48.386;11.738;2024-02-14T08:29:36;5.13;;;3.22;;
48040;SDS011;33815;48.386;11.738;2024-02-14T08:32:01;5.13;;;3.00;;
48040;SDS011;33815;48.386;11.738;2024-02-14T08:34:28;3.35;;;2.80;;
48040;SDS011;33815;48.386;11.738;2024-02-14T08:36:54;4.65;;;3.13;;
48040;SDS011;33815;48.386;11.738;2024-02-14T08:39:19;4.75;;;3.03;;
48040;SDS011;33815;48.386;11.738;2024-02-14T08:41:45;3.55;;;2.75;;
48040;SDS011;33815;48.386;11.738;2024-02-14T08:44:11;7.28;;;3.20;;
48040;SDS011;33815;48.386;11.738;2024-02-14T08:46:37;3.55;;;2.60;;
48040;SDS011;33815;48.386;11.738;2024-02-14T08:49:04;6.07;;;2.90;;
48040;SDS011;33815;48.386;11.738;2024-02-14T08:51:33;3.28;;;2.13;;
48040;SDS011;33815;48.386;11.738;2024-02-14T08:53:59;6.28;;;2.88;;
48040;SDS011;33815;48.386;11.738;2024-02-14T08:56:25;2.95;;;2.30;;
48040;SDS011;33815;48.386;11.738;2024-02-14T08:58:50;4.05;;;2.15;;
48040;SDS011;33815;48.386;11.738;2024-02-14T09:01:16;6.80;;;2.45;;
48040;SDS011;33815;48.386;11.738;2024-02-14T09:03:44;3.30;;;3.00;;
48040;SDS011;33815;48.386;11.738;2024-02-14T09:06:13;5.63;;;3.05;;
48040;SDS011;33815;48.386;11.738;2024-02-14T09:08:39;4.20;;;2.75;;
48040;SDS011;33815;48.386;11.738;2024-02-14T09:11:05;4.65;;;2.53;;
48040;SDS011;33815;48.386;11.738;2024-02-14T09:13:30;5.72;;;2.97;;
48040;SDS011;33815;48.386;11.738;2024-02-14T09:15:55;4.00;;;2.70;;
48040;SDS011;33815;48.386;11.738;2024-02-14T09:18:21;3.28;;;2.35;;
48040;SDS011;33815;48.386;11.738;2024-02-14T09:20:46;3.78;;;2.58;;
48040;SDS011;33815;48.386;11.738;2024-02-14T09:23:12;5.10;;;2.67;;
48040;SDS011;33815;48.386;11.738;2024-02-14T09:25:39;3.00;;;2.22;;
48040;SDS011;33815;48.386;11.738;2024-02-14T09:28:05;6.25;;;2.25;;
48040;SDS011;33815;48.386;11.738;2024-02-14T09:30:31;3.30;;;2.10;;
48040;SDS011;33815;48.386;11.738;2024-02-14T09:32:57;11.73;;;2.45;;
48040;SDS011;33815;48.386;11.738;2024-02-14T09:35:22;2.33;;;2.13;;
48040;SDS011;33815;48.386;11.738;2024-02-14T09:37:49;5.95;;;2.83;;
48040;SDS011;33815;48.386;11.738;2024-02-14T09:40:14;4.43;;;2.75;;
48040;SDS011;33815;48.386;11.738;2024-02-14T09:42:43;2.83;;;2.17;;
48040;SDS011;33815;48.386;11.738;2024-02-14T09:45:12;4.28;;;2.03;;
48040;SDS011;33815;48.386;11.738;2024-02-14T09:47:38;4.45;;;2.58;;
48040;SDS011;33815;48.386;11.738;2024-02-14T09:50:05;4.28;;;1.77;;
48040;SDS011;33815;48.386;11.738;2024-02-14T09:52:32;6.35;;;2.22;;
48040;SDS011;33815;48.386;11.738;2024-02-14T09:54:58;5.13;;;2.10;;
48040;SDS011;33815;48.386;11.738;2024-02-14T09:57:24;5.22;;;2.45;;
48040;SDS011;33815;48.386;11.738;2024-02-14T09:59:51;8.68;;;2.20;;
48040;SDS011;33815;48.386;11.738;2024-02-14T10:02:18;3.53;;;2.22;;
48040;SDS011;33815;48.386;11.738;2024-02-14T10:04:44;5.88;;;2.10;;
48040;SDS011;33815;48.386;11.738;2024-02-14T10:07:09;6.07;;;2.37;;
48040;SDS011;33815;48.386;11.738;2024-02-14T10:09:41;3.42;;;2.15;;
48040;SDS011;33815;48.386;11.738;2024-02-14T10:12:07;5.10;;;2.30;;
48040;SDS011;33815;48.386;11.738;2024-02-14T10:14:36;3.08;;;1.70;;
48040;SDS011;33815;48.386;11.738;2024-02-14T10:17:05;2.67;;;1.63;;
48040;SDS011;33815;48.386;11.738;2024-02-14T10:19:32;7.60;;;1.98;;
48040;SDS011;33815;48.386;11.738;2024-02-14T10:21:58;4.03;;;1.83;;
48040;SDS011;33815;48.386;11.738;2024-02-14T10:24:25;2.90;;;2.22;;
48040;SDS011;33815;48.386;11.738;2024-02-14T10:26:55;2.58;;;1.80;;
48040;SDS011;33815;48.386;11.738;2024-02-14T10:29:22;3.28;;;1.73;;
48040;SDS011;33815;48.386;11.738;2024-02-14T10:31:50;5.03;;;1.80;;
48040;SDS011;33815;48.386;11.738;2024-02-14T10:34:17;4.60;;;1.40;;
48040;SDS011;33815;48.386;11.738;2024-02-14T10:36:45;1.80;;;1.70;;
48040;SDS011;33815;48.386;11.738;2024-02-14T10:39:11;2.10;;;1.88;;
48040;SDS011;33815;48.386;11.738;2024-02-14T10:41:37;2.80;;;1.58;;
48040;SDS011;33815;48.386;11.738;2024-02-14T10:44:02;1.58;;;1.42;;
48040;SDS011;33815;48.386;11.738;2024-02-14T10:46:32;2.33;;;1.55;;
48040;SDS011;33815;48.386;11.738;2024-02-14T10:49:04;4.70;;;1.67;;
48040;SDS011;33815;48.386;11.738;2024-02-14T10:51:31;8.70;;;1.80;;
48040;SDS011;33815;48.386;11.738;2024-02-14T10:54:01;2.55;;;1.50;;
48040;SDS011;33815;48.386;11.738;2024-02-14T10:56:31;15.32;;;6.93;;
48040;SDS011;33815;48.386;11.738;2024-02-14T10:58:57;11.27;;;6.57;;
48040;SDS011;33815;48.386;11.738;2024-02-14T11:01:24;5.65;;;1.75;;
48040;SDS011;33815;48.386;11.738;2024-02-14T11:03:51;4.75;;;1.60;;
48040;SDS011;33815;48.386;11.738;2024-02-14T11:06:17;1.90;;;1.42;;
48040;SDS011;33815;48.386;11.738;2024-02-14T11:08:53;2.78;;;1.50;;
48040;SDS011;33815;48.386;11.738;2024-02-14T11:11:20;3.28;;;1.58;;
48040;SDS011;33815;48.386;11.738;2024-02-14T11:13:46;3.67;;;1.40;;
48040;SDS011;33815;48.386;11.738;2024-02-14T11:16:16;4.65;;;1.45;;
48040;SDS011;33815;48.386;11.738;2024-02-14T11:18:42;4.88;;;1.83;;
48040;SDS011;33815;48.386;11.738;2024-02-14T11:21:15;2.03;;;1.20;;
48040;SDS011;33815;48.386;11.738;2024-02-14T11:23:52;3.47;;;1.98;;
48040;SDS011;33815;48.386;11.738;2024-02-14T11:26:17;2.00;;;1.20;;
48040;SDS011;33815;48.386;11.738;2024-02-14T11:28:43;2.80;;;1.40;;
48040;SDS011;33815;48.386;11.738;2024-02-14T11:31:08;2.75;;;1.80;;
48040;SDS011;33815;48.386;11.738;2024-02-14T11:33:35;2.97;;;1.55;;
48040;SDS011;33815;48.386;11.738;2024-02-14T11:36:01;7.28;;;3.40;;
48040;SDS011;33815;48.386;11.738;2024-02-14T11:38:35;3.45;;;2.10;;
48040;SDS011;33815;48.386;11.738;2024-02-14T11:41:00;3.50;;;2.80;;
48040;SDS011;33815;48.386;11.738;2024-02-14T11:43:28;1.40;;;1.00;;
48040;SDS011;33815;48.386;11.738;2024-02-14T11:45:54;2.85;;;1.80;;
48040;SDS011;33815;48.386;11.738;2024-02-14T11:48:19;2.63;;;1.15;;
48040;SDS011;33815;48.386;11.738;2024-02-14T11:50:46;1.10;;;1.00;;
48040;SDS011;33815;48.386;11.738;2024-02-14T11:53:12;1.88;;;0.80;;
48040;SDS011;33815;48.386;11.738;2024-02-14T11:55:39;2.00;;;1.27;;
48040;SDS011;33815;48.386;11.738;2024-02-14T11:58:08;2.95;;;2.10;;
48040;SDS011;33815;48.386;11.738;2024-02-14T12:00:38;1.30;;;0.93;;
48040;SDS011;33815;48.386;11.738;2024-02-14T12:03:06;1.25;;;0.90;;
48040;SDS011;33815;48.386;11.738;2024-02-14T12:05:33;4.50;;;3.55;;
48040;SDS011;33815;48.386;11.738;2024-02-14T12:07:59;2.40;;;2.00;;
48040;SDS011;33815;48.386;11.738;2024-02-14T12:10:25;4.55;;;1.52;;
48040;SDS011;33815;48.386;11.738;2024-02-14T12:12:51;2.90;;;1.73;;
48040;SDS011;33815;48.386;11.738;2024-02-14T12:15:16;3.35;;;1.90;;
48040;SDS011;33815;48.386;11.738;2024-02-14T12:17:41;4.80;;;2.40;;
48040;SDS011;33815;48.386;11.738;2024-02-14T12:20:10;4.68;;;3.10;;
48040;SDS011;33815;48.386;11.738;2024-02-14T12:22:38;4.43;;;2.63;;
48040;SDS011;33815;48.386;11.738;2024-02-14T12:25:05;3.42;;;1.88;;
48040;SDS011;33815;48.386;11.738;2024-02-14T12:27:36;3.05;;;1.85;;
48040;SDS011;33815;48.386;11.738;2024-02-14T12:30:07;5.85;;;2.30;;
48040;SDS011;33815;48.386;11.738;2024-02-14T12:32:34;1.35;;;1.00;;
48040;SDS011;33815;48.386;11.738;2024-02-14T12:35:00;3.60;;;1.77;;
48040;SDS011;33815;48.386;11.738;2024-02-14T12:37:25;3.05;;;1.80;;
48040;SDS011;33815;48.386;11.738;2024-02-14T12:39:51;6.65;;;3.70;;
48040;SDS011;33815;48.386;11.738;2024-02-14T12:42:16;8.25;;;4.90;;
48040;SDS011;33815;48.386;11.738;2024-02-14T12:44:43;1.45;;;1.35;;
48040;SDS011;33815;48.386;11.738;2024-02-14T12:47:09;3.53;;;2.40;;
48040;SDS011;33815;48.386;11.738;2024-02-14T12:49:34;1.20;;;0.55;;
48040;SDS011;33815;48.386;11.738;2024-02-14T12:51:59;2.15;;;1.55;;
48040;SDS011;33815;48.386;11.738;2024-02-14T12:54:25;1.97;;;1.70;;
48040;SDS011;33815;48.386;11.738;2024-02-14T12:56:51;5.77;;;1.90;;
48040;SDS011;33815;48.386;11.738;2024-02-14T12:59:17;1.95;;;1.25;;
48040;SDS011;33815;48.386;11.738;2024-02-14T13:01:46;1.67;;;0.80;;
48040;SDS011;33815;48.386;11.738;2024-02-14T13:04:12;1.00;;;0.82;;
48040;SDS011;33815;48.386;11.738;2024-02-14T13:06:39;1.48;;;1.10;;
48040;SDS011;33815;48.386;11.738;2024-02-14T13:09:04;0.95;;;0.75;;
48040;SDS011;33815;48.386;11.738;2024-02-14T13:11:31;1.23;;;1.13;;
48040;SDS011;33815;48.386;11.738;2024-02-14T13:13:57;1.95;;;0.90;;
48040;SDS011;33815;48.386;11.738;2024-02-14T13:16:22;1.88;;;0.93;;
48040;SDS011;33815;48.386;11.738;2024-02-14T13:18:47;2.15;;;1.20;;
48040;SDS011;33815;48.386;11.738;2024-02-14T13:21:13;2.65;;;1.50;;
48040;SDS011;33815;48.386;11.738;2024-02-14T13:23:38;3.10;;;2.17;;
48040;SDS011;33815;48.386;11.738;2024-02-14T13:26:05;0.85;;;0.80;;
48040;SDS011;33815;48.386;11.738;2024-02-14T13:28:30;1.40;;;0.70;;
48040;SDS011;33815;48.386;11.738;2024-02-14T13:30:56;2.65;;;1.23;;
48040;SDS011;33815;48.386;11.738;2024-02-14T13:33:22;3.17;;;1.35;;
48040;SDS011;33815;48.386;11.738;2024-02-14T13:35:47;1.98;;;0.90;;
48040;SDS011;33815;48.386;11.738;2024-02-14T13:38:13;1.60;;;1.10;;
48040;SDS011;33815;48.386;11.738;2024-02-14T13:40:38;1.08;;;0.98;;
48040;SDS011;33815;48.386;11.738;2024-02-14T13:43:03;1.20;;;0.80;;
48040;SDS011;33815;48.386;11.738;2024-02-14T13:45:39;1.35;;;0.82;;
48040;SDS011;33815;48.386;11.738;2024-02-14T13:48:07;1.77;;;0.90;;
48040;SDS011;33815;48.386;11.738;2024-02-14T13:50:33;3.50;;;0.80;;
48040;SDS011;33815;48.386;11.738;2024-02-14T13:52:59;1.85;;;0.90;;
48040;SDS011;33815;48.386;11.738;2024-02-14T13:55:24;1.55;;;0.98;;
48040;SDS011;33815;48.386;11.738;2024-02-14T13:57:50;1.30;;;0.82;;
48040;SDS011;33815;48.386;11.738;2024-02-14T14:00:15;0.85;;;0.70;;
48040;SDS011;33815;48.386;11.738;2024-02-14T14:02:40;3.55;;;1.30;;
48040;SDS011;33815;48.386;11.738;2024-02-14T14:05:11;3.50;;;0.75;;
48040;SDS011;33815;48.386;11.738;2024-02-14T14:07:40;2.85;;;1.40;;
48040;SDS011;33815;48.386;11.738;2024-02-14T14:10:06;3.00;;;1.90;;
48040;SDS011;33815;48.386;11.738;2024-02-14T14:12:33;1.38;;;1.05;;
48040;SDS011;33815;48.386;11.738;2024-02-14T14:14:58;1.05;;;0.80;;
48040;SDS011;33815;48.386;11.738;2024-02-14T14:17:24;0.80;;;0.80;;
48040;SDS011;33815;48.386;11.738;2024-02-14T14:19:49;3.40;;;1.45;;
48040;SDS011;33815;48.386;11.738;2024-02-14T14:22:15;0.60;;;0.60;;
48040;SDS011;33815;48.386;11.738;2024-02-14T14:24:41;2.28;;;1.20;;
48040;SDS011;33815;48.386;11.738;2024-02-14T14:27:07;1.45;;;1.23;;